createdAt,value
2019-04-20T00:01:03.501Z,97973.63
2019-04-20T00:03:37.989Z,97969.98
2019-04-20T00:06:04.687Z,97970.45
2019-04-20T00:08:37.701Z,97969.41
2019-04-20T00:11:15.639Z,97973.01
2019-04-20T00:13:48.803Z,97971.31
2019-04-20T00:16:08.687Z,97973.48
2019-04-20T00:18:43.081Z,97969.10
2019-04-20T00:21:29.003Z,97967.95
2019-04-20T00:24:07.386Z,97959.92
2019-04-20T00:27:04.748Z,97960.92
2019-04-20T00:29:21.310Z,97972.01
2019-04-20T00:31:49.766Z,97967.20
2019-04-20T00:34:15.685Z,97964.55
2019-04-20T00:36:39.237Z,97966.13
2019-04-20T00:39:11.866Z,97965.55
2019-04-20T00:41:51.011Z,97959.37
2019-04-20T00:44:20.674Z,97961.75
2019-04-20T00:46:56.919Z,97961.04
2019-04-20T00:49:35.076Z,97961.17
2019-04-20T00:52:15.191Z,97959.83
2019-04-20T00:54:18.149Z,97960.45
2019-04-20T00:56:47.880Z,97950.99
2019-04-20T00:59:31.557Z,97954.48
2019-04-20T01:02:10.801Z,97951.40
2019-04-20T01:04:41.058Z,97951.25
2019-04-20T01:07:11.255Z,97944.84
2019-04-20T01:09:30.884Z,97941.69
2019-04-20T01:12:04.056Z,97948.09
2019-04-20T01:14:40.611Z,97941.56
2019-04-20T01:17:11.782Z,97943.63
2019-04-20T01:19:34.669Z,97947.95
2019-04-20T01:22:07.967Z,97946.18
2019-04-20T01:24:40.484Z,97950.53
2019-04-20T01:27:25.897Z,97943.84
2019-04-20T01:29:45.668Z,97948.19
2019-04-20T01:32:22.375Z,97951.77
2019-04-20T01:34:52.375Z,97947.50
2019-04-20T01:37:25.910Z,97948.84
2019-04-20T01:39:49.177Z,97956.78
2019-04-20T01:42:15.253Z,97952.97
2019-04-20T01:44:48.588Z,97950.80
2019-04-20T01:47:17.076Z,97952.63
2019-04-20T01:49:53.949Z,97957.58
2019-04-20T01:52:26.910Z,97959.25
2019-04-20T01:55:15.775Z,97952.23
2019-04-20T01:57:54.574Z,97957.53
2019-04-20T02:00:23.272Z,97957.06
2019-04-20T02:02:56.518Z,97958.64
2019-04-20T02:05:27.534Z,97955.64
2019-04-20T02:07:54.169Z,97958.28
2019-04-20T02:10:33.291Z,97956.11
2019-04-20T02:12:59.870Z,97950.72
2019-04-20T02:15:32.687Z,97959.49
2019-04-20T02:18:07.466Z,97955.66
2019-04-20T02:20:51.491Z,97952.19
2019-04-20T02:23:14.996Z,97947.39
2019-04-20T02:25:31.657Z,97942.94
2019-04-20T02:28:19.207Z,97948.69
2019-04-20T02:31:15.622Z,97941.48
2019-04-20T02:33:42.854Z,97943.74
2019-04-20T02:39:05.702Z,97942.04
2019-04-20T02:41:17.752Z,97940.08
2019-04-20T02:43:57.656Z,97941.04
2019-04-20T02:46:17.109Z,97933.68
2019-04-20T02:48:52.489Z,97936.38
2019-04-20T02:51:23.572Z,97940.98
2019-04-20T02:54:02.155Z,97938.59
2019-04-20T02:59:13.350Z,97937.50
2019-04-20T03:01:29.120Z,97945.09
2019-04-20T03:03:44.924Z,97949.43
2019-04-20T03:06:22.064Z,97946.30
2019-04-20T03:09:04.792Z,97940.17
2019-04-20T03:11:42.606Z,97945.10
2019-04-20T03:14:08.421Z,97941.38
2019-04-20T03:16:32.199Z,97949.34
2019-04-20T03:19:02.997Z,97946.79
2019-04-20T03:21:47.886Z,97944.27
2019-04-20T03:24:21.518Z,97943.88
2019-04-20T03:26:40.330Z,97951.73
2019-04-20T03:29:35.962Z,97953.41
2019-04-20T03:32:40.219Z,97953.30
2019-04-20T03:37:17.205Z,97952.91
2019-04-20T03:39:37.601Z,97952.69
2019-04-20T03:41:54.977Z,97956.55
2019-04-20T03:44:26.468Z,97965.81
2019-04-20T03:46:59.792Z,97972.38
2019-04-20T03:49:52.841Z,97973.92
2019-04-20T03:52:27.785Z,97968.86
2019-04-20T03:54:54.359Z,97972.06
2019-04-20T03:57:40.965Z,97977.06
2019-04-20T04:00:24.425Z,97982.00
2019-04-20T04:05:30.307Z,97983.69
2019-04-20T04:07:46.777Z,97988.06
2019-04-20T04:10:24.993Z,97983.50
2019-04-20T04:13:18.605Z,97993.12
2019-04-20T04:15:55.589Z,97998.19
2019-04-20T04:18:29.800Z,97998.53
2019-04-20T04:21:00.057Z,98003.35
2019-04-20T04:23:40.807Z,98005.16
2019-04-20T04:26:12.957Z,98006.72
2019-04-20T04:28:43.316Z,98014.05
2019-04-20T04:31:16.416Z,98016.84
2019-04-20T04:34:04.357Z,98012.63
2019-04-20T04:36:17.798Z,98015.75
2019-04-20T04:39:08.676Z,98015.50
2019-04-20T04:43:53.867Z,98014.08
2019-04-20T04:46:07.965Z,98022.14
2019-04-20T04:48:42.772Z,98029.09
2019-04-20T04:51:15.460Z,98026.17
2019-04-20T04:53:52.461Z,98030.56
2019-04-20T04:56:17.099Z,98036.33
2019-04-20T04:58:43.008Z,98033.41
2019-04-20T05:01:20.065Z,98031.20
2019-04-20T05:04:11.516Z,98029.86
2019-04-20T05:06:31.737Z,98031.44
2019-04-20T05:08:53.059Z,98030.22
2019-04-20T05:11:19.704Z,98030.05
2019-04-20T05:13:56.700Z,98025.14
2019-04-20T05:16:43.191Z,98024.63
2019-04-20T05:19:13.374Z,98030.63
2019-04-20T05:21:49.860Z,98027.78
2019-04-20T05:24:28.823Z,98019.05
2019-04-20T05:27:08.959Z,98019.61
2019-04-20T05:29:24.915Z,98021.16
2019-04-20T05:31:55.902Z,98021.39
2019-04-20T05:34:45.346Z,98016.23
2019-04-20T05:37:20.835Z,98014.09
2019-04-20T05:39:47.409Z,98021.89
2019-04-20T05:42:17.905Z,98019.15
2019-04-20T05:44:50.070Z,98015.72
2019-04-20T05:47:18.161Z,98010.92
2019-04-20T05:49:45.060Z,98014.43
2019-04-20T05:52:36.134Z,98013.20
2019-04-20T05:54:58.109Z,98015.00
2019-04-20T06:00:01.810Z,98016.27
2019-04-20T06:02:27.348Z,98011.40
2019-04-20T06:07:34.778Z,98023.22
2019-04-20T06:10:06.580Z,98020.27
2019-04-20T06:12:36.311Z,98014.05
2019-04-20T06:15:15.615Z,98010.25
2019-04-20T06:18:10.669Z,98015.41
2019-04-20T06:20:41.114Z,98014.99
2019-04-20T06:23:42.778Z,98021.17
2019-04-20T06:26:26.853Z,98018.69
2019-04-20T06:28:40.020Z,98022.50
2019-04-20T06:31:18.002Z,98027.67
2019-04-20T06:36:49.641Z,98022.09
2019-04-20T06:39:20.417Z,98018.96
2019-04-20T06:42:08.114Z,98013.80
2019-04-20T06:44:30.424Z,98017.81
2019-04-20T06:49:28.913Z,98008.61
2019-04-20T06:52:14.222Z,98010.50
2019-04-20T06:54:36.152Z,98000.69
2019-04-20T06:57:05.840Z,98010.39
2019-04-20T06:59:43.438Z,98001.82
2019-04-20T07:02:17.293Z,98007.45
2019-04-20T07:04:48.577Z,97997.35
2019-04-20T07:07:17.097Z,97998.11
2019-04-20T07:09:58.238Z,98003.14
2019-04-20T07:12:14.347Z,97995.38
2019-04-20T07:14:37.967Z,97995.19
2019-04-20T07:17:34.965Z,97997.16
2019-04-20T07:19:56.405Z,97996.24
2019-04-20T07:22:39.446Z,97997.63
2019-04-20T07:25:07.922Z,97998.55
2019-04-20T07:27:41.546Z,97992.83
2019-04-20T07:30:12.063Z,97987.70
2019-04-20T07:32:49.659Z,97989.23
2019-04-20T07:35:14.512Z,97989.78
2019-04-20T07:40:20.616Z,97991.23
2019-04-20T07:42:55.544Z,97984.90
2019-04-20T07:48:04.922Z,97983.14
2019-04-20T07:50:25.268Z,97983.97
2019-04-20T07:52:51.624Z,97980.86
2019-04-20T07:55:40.878Z,97980.87
2019-04-20T07:57:58.075Z,97979.67
2019-04-20T08:00:51.956Z,97978.29
2019-04-20T08:03:29.374Z,97981.58
2019-04-20T08:05:50.120Z,97980.45
2019-04-20T08:08:28.116Z,97977.78
2019-04-20T08:11:02.619Z,97982.51
2019-04-20T08:13:40.360Z,97976.39
2019-04-20T08:16:06.905Z,97977.80
2019-04-20T08:18:40.226Z,97980.52
2019-04-20T08:21:08.266Z,97977.02
2019-04-20T08:23:39.065Z,97977.56
2019-04-20T08:26:00.430Z,97978.79
2019-04-20T08:28:35.902Z,97976.62
2019-04-20T08:31:33.425Z,97979.05
2019-04-20T08:34:33.731Z,97975.73
2019-04-20T08:39:48.175Z,97972.91
2019-04-20T08:42:00.552Z,97965.78
2019-04-20T08:44:48.490Z,97965.19
2019-04-20T08:47:16.169Z,97967.88
2019-04-20T08:49:47.138Z,97962.55
2019-04-20T08:52:34.334Z,97964.34
2019-04-20T08:54:34.465Z,97959.34
2019-04-20T08:56:55.292Z,97959.44
2019-04-20T08:59:23.348Z,97955.38
2019-04-20T09:01:53.534Z,97955.92
2019-04-20T09:04:36.047Z,97950.26
2019-04-20T09:07:06.468Z,97945.00
2019-04-20T09:12:14.466Z,97948.45
2019-04-20T09:14:30.261Z,97946.90
2019-04-20T09:17:08.066Z,97937.52
2019-04-20T09:19:46.954Z,97935.47
2019-04-20T09:22:32.991Z,97939.06
2019-04-20T09:25:36.484Z,97936.54
2019-04-20T09:27:35.077Z,97932.61
2019-04-20T09:30:09.224Z,97936.37
2019-04-20T09:32:56.669Z,97938.98
2019-04-20T09:35:36.087Z,97933.84
2019-04-20T09:38:12.059Z,97935.27
2019-04-20T09:40:43.462Z,97929.59
2019-04-20T09:42:57.899Z,97925.32
2019-04-20T09:45:38.231Z,97926.39
2019-04-20T09:48:07.047Z,97923.06
2019-04-20T09:50:55.559Z,97916.72
2019-04-20T09:53:22.137Z,97920.52
2019-04-20T09:55:56.755Z,97915.14
2019-04-20T09:58:21.274Z,97914.67
2019-04-20T10:01:02.057Z,97913.67
2019-04-20T10:03:18.458Z,97909.02
2019-04-20T10:05:49.519Z,97900.48
2019-04-20T10:08:19.693Z,97901.64
2019-04-20T10:10:51.174Z,97902.41
2019-04-20T10:13:21.578Z,97899.89
2019-04-20T10:15:51.437Z,97905.00
2019-04-20T10:18:21.864Z,97904.35
2019-04-20T10:20:51.710Z,97902.92
2019-04-20T10:23:22.441Z,97896.98
2019-04-20T10:25:52.404Z,97899.11
2019-04-20T10:28:23.389Z,97901.39
2019-04-20T10:30:53.095Z,97893.77
2019-04-20T10:33:23.758Z,97890.06
2019-04-20T10:35:53.906Z,97896.00
2019-04-20T10:38:31.048Z,97881.64
2019-04-20T10:41:08.341Z,97890.28
2019-04-20T10:43:30.954Z,97881.83
2019-04-20T10:46:00.824Z,97889.44
2019-04-20T10:48:33.964Z,97877.45
2019-04-20T10:51:03.052Z,97876.44
2019-04-20T10:53:32.824Z,97881.18
2019-04-20T10:56:03.432Z,97879.11
2019-04-20T10:58:33.799Z,97879.16
2019-04-20T11:01:03.904Z,97875.13
2019-04-20T11:03:34.589Z,97872.55
2019-04-20T11:06:04.882Z,97874.55
2019-04-20T11:08:34.866Z,97860.78
2019-04-20T11:11:13.106Z,97870.20
2019-04-20T11:13:37.344Z,97862.89
2019-04-20T11:16:08.498Z,97857.37
2019-04-20T11:18:39.610Z,97863.20
2019-04-20T11:21:09.418Z,97860.15
2019-04-20T11:23:40.329Z,97855.34
2019-04-20T11:26:10.554Z,97852.81
2019-04-20T11:28:40.209Z,97850.43
2019-04-20T11:31:10.270Z,97848.61
2019-04-20T11:33:40.420Z,97845.33
2019-04-20T11:36:10.168Z,97837.92
2019-04-20T11:38:40.756Z,97849.16
2019-04-20T11:41:18.173Z,97842.97
2019-04-20T11:43:42.002Z,97838.79
2019-04-20T11:46:12.339Z,97847.00
2019-04-20T11:48:43.279Z,97838.00
2019-04-20T11:51:13.753Z,97835.11
2019-04-20T11:53:43.488Z,97835.09
2019-04-20T11:56:18.175Z,97834.56
2019-04-20T11:58:44.907Z,97828.70
2019-04-20T12:01:39.241Z,97827.09
2019-04-20T12:04:20.163Z,97822.52
2019-04-20T12:06:34.860Z,97817.00
2019-04-20T12:09:09.090Z,97820.09
2019-04-20T12:11:53.510Z,97813.09
2019-04-20T12:14:10.444Z,97810.45
2019-04-20T12:16:40.084Z,97800.88
2019-04-20T12:19:10.585Z,97802.16
2019-04-20T12:21:40.921Z,97796.06
2019-04-20T12:24:12.246Z,97790.22
2019-04-20T12:26:42.741Z,97793.77
2019-04-20T12:29:12.437Z,97786.59
2019-04-20T12:31:44.346Z,97790.13
2019-04-20T12:34:16.028Z,97781.38
2019-04-20T12:36:46.953Z,97779.48
2019-04-20T12:39:17.261Z,97780.19
2019-04-20T12:41:52.894Z,97778.09
2019-04-20T12:44:19.601Z,97770.06
2019-04-20T12:46:49.885Z,97777.36
2019-04-20T12:49:19.895Z,97776.16
2019-04-20T12:51:54.651Z,97766.34
2019-04-20T12:54:20.869Z,97763.42
2019-04-20T12:56:50.752Z,97761.52
2019-04-20T12:59:21.193Z,97758.06
2019-04-20T13:01:51.368Z,97747.64
2019-04-20T13:04:22.583Z,97748.94
2019-04-20T13:06:55.222Z,97751.65
2019-04-20T13:09:28.342Z,97751.21
2019-04-20T13:12:05.420Z,97744.30
2019-04-20T13:14:56.155Z,97743.06
2019-04-20T13:17:26.247Z,97738.89
2019-04-20T13:19:57.388Z,97731.60
2019-04-20T13:22:27.143Z,97732.89
2019-04-20T13:24:57.008Z,97735.04
2019-04-20T13:27:27.056Z,97727.92
2019-04-20T13:29:56.631Z,97718.43
2019-04-20T13:32:27.627Z,97723.14
2019-04-20T13:34:58.269Z,97721.73
2019-04-20T13:37:28.494Z,97716.66
2019-04-20T13:39:58.645Z,97710.28
2019-04-20T13:42:30.197Z,97707.22
2019-04-20T13:45:01.054Z,97705.66
2019-04-20T13:47:30.946Z,97702.66
2019-04-20T13:50:01.090Z,97693.50
2019-04-20T13:52:31.164Z,97698.04
2019-04-20T13:55:00.904Z,97690.44
2019-04-20T13:57:49.551Z,97681.29
2019-04-20T14:00:37.544Z,97686.30
2019-04-20T14:03:12.881Z,97682.12
2019-04-20T14:05:42.915Z,97677.86
2019-04-20T14:08:17.642Z,97671.69
2019-04-20T14:10:47.386Z,97676.75
2019-04-20T14:13:20.329Z,97669.94
2019-04-20T14:15:49.233Z,97664.94
2019-04-20T14:18:19.433Z,97665.52
2019-04-20T14:20:50.072Z,97658.21
2019-04-20T14:23:21.068Z,97654.61
2019-04-20T14:25:51.165Z,97656.14
2019-04-20T14:28:21.026Z,97648.14
2019-04-20T14:30:51.974Z,97646.23
2019-04-20T14:33:22.884Z,97641.27
2019-04-20T14:35:52.973Z,97641.84
2019-04-20T14:38:22.642Z,97631.89
2019-04-20T14:40:52.550Z,97638.84
2019-04-20T14:43:22.435Z,97634.09
2019-04-20T14:45:52.488Z,97626.82
2019-04-20T14:48:22.768Z,97636.62
2019-04-20T14:50:53.782Z,97635.92
2019-04-20T14:53:23.458Z,97630.50
2019-04-20T14:55:53.647Z,97627.39
2019-04-20T14:58:43.922Z,97629.60
2019-04-20T15:01:32.474Z,97628.98
2019-04-20T15:04:08.993Z,97626.25
2019-04-20T15:06:37.694Z,97631.58
2019-04-20T15:09:08.948Z,97628.53
2019-04-20T15:11:41.662Z,97624.12
2019-04-20T15:14:11.104Z,97624.09
2019-04-20T15:16:40.841Z,97620.47
2019-04-20T15:19:11.686Z,97623.20
2019-04-20T15:21:47.410Z,97619.17
2019-04-20T15:24:17.786Z,97611.42
2019-04-20T15:26:48.767Z,97610.70
2019-04-20T15:29:18.504Z,97613.48
2019-04-20T15:31:48.240Z,97608.50
2019-04-20T15:34:19.539Z,97600.30
2019-04-20T15:36:49.845Z,97602.85
2019-04-20T15:39:19.542Z,97601.00
2019-04-20T15:41:49.575Z,97597.88
2019-04-20T15:44:19.448Z,97594.17
2019-04-20T15:46:49.227Z,97593.36
2019-04-20T15:49:19.898Z,97590.48
2019-04-20T15:51:50.028Z,97594.70
2019-04-20T15:54:19.811Z,97589.73
2019-04-20T15:56:56.485Z,97588.83
2019-04-20T15:59:22.173Z,97584.59
2019-04-20T16:01:53.575Z,97583.92
2019-04-20T16:04:43.471Z,97581.63
2019-04-20T16:07:15.061Z,97575.73
2019-04-20T16:09:46.270Z,97574.09
2019-04-20T16:12:17.239Z,97574.23
2019-04-20T16:14:47.408Z,97570.94
2019-04-20T16:17:17.443Z,97568.92
2019-04-20T16:19:55.394Z,97564.48
2019-04-20T16:22:21.590Z,97563.20
2019-04-20T16:24:53.703Z,97560.41
2019-04-20T16:27:29.676Z,97557.38
2019-04-20T16:29:59.894Z,97557.70
2019-04-20T16:32:30.407Z,97557.02
2019-04-20T16:35:00.371Z,97550.86
2019-04-20T16:37:30.604Z,97545.27
2019-04-20T16:40:00.805Z,97550.61
2019-04-20T16:42:32.174Z,97543.83
2019-04-20T16:45:03.174Z,97544.45
2019-04-20T16:47:34.294Z,97541.88
2019-04-20T16:50:06.933Z,97546.37
2019-04-20T16:52:36.909Z,97546.85
2019-04-20T16:55:08.213Z,97539.50
2019-04-20T16:57:39.712Z,97537.94
2019-04-20T17:00:11.506Z,97530.30
2019-04-20T17:02:42.384Z,97534.66
2019-04-20T17:05:13.526Z,97530.06
2019-04-20T17:07:45.012Z,97528.02
2019-04-20T17:10:17.929Z,97529.50
2019-04-20T17:12:48.080Z,97529.85
2019-04-20T17:15:19.480Z,97535.34
2019-04-20T17:17:50.261Z,97528.22
2019-04-20T17:20:21.991Z,97531.55
2019-04-20T17:22:52.496Z,97527.12
2019-04-20T17:25:22.186Z,97522.63
2019-04-20T17:27:54.834Z,97526.75
2019-04-20T17:30:45.973Z,97520.30
2019-04-20T17:33:25.794Z,97520.08
2019-04-20T17:36:03.596Z,97525.13
2019-04-20T17:38:34.706Z,97530.59
2019-04-20T17:41:14.657Z,97531.76
2019-04-20T17:43:37.186Z,97532.19
2019-04-20T17:46:10.106Z,97528.25
2019-04-20T17:48:43.198Z,97538.50
2019-04-20T17:51:23.384Z,97543.77
2019-04-20T17:53:49.051Z,97536.27
2019-04-20T17:56:12.150Z,97547.21
2019-04-20T17:58:41.925Z,97552.99
2019-04-20T18:01:34.844Z,97558.60
2019-04-20T18:04:37.009Z,97557.37
2019-04-20T18:06:50.536Z,97553.71
2019-04-20T18:09:34.442Z,97556.20
2019-04-20T18:11:46.425Z,97557.06
2019-04-20T18:14:30.476Z,97555.02
2019-04-20T18:17:13.749Z,97558.92
2019-04-20T18:19:39.200Z,97561.03
2019-04-20T18:22:11.818Z,97569.23
2019-04-20T18:25:02.549Z,97565.80
2019-04-20T18:27:37.530Z,97572.52
2019-04-20T18:30:01.175Z,97573.45
2019-04-20T18:32:21.193Z,97570.70
2019-04-20T18:34:59.146Z,97584.81
2019-04-20T18:37:28.652Z,97584.75
2019-04-20T18:40:03.918Z,97585.45
2019-04-20T18:42:36.727Z,97580.66
2019-04-20T18:45:17.383Z,97586.83
2019-04-20T18:47:49.342Z,97592.05
2019-04-20T18:50:16.582Z,97600.24
2019-04-20T18:52:37.860Z,97600.37
2019-04-20T18:55:17.316Z,97603.69
2019-04-20T18:57:41.583Z,97603.60
2019-04-20T19:00:19.115Z,97602.52
2019-04-20T19:02:52.033Z,97610.54
2019-04-20T19:05:17.824Z,97608.50
2019-04-20T19:07:57.217Z,97608.72
2019-04-20T19:10:27.407Z,97610.34
2019-04-20T19:12:59.353Z,97610.20
2019-04-20T19:15:50.885Z,97607.07
2019-04-20T19:18:18.440Z,97616.14
2019-04-20T19:20:55.106Z,97617.70
2019-04-20T19:23:25.107Z,97615.10
2019-04-20T19:26:04.429Z,97619.34
2019-04-20T19:28:31.855Z,97617.05
2019-04-20T19:31:11.449Z,97619.29
2019-04-20T19:33:52.072Z,97616.24
2019-04-20T19:36:15.106Z,97622.34
2019-04-20T19:38:46.557Z,97621.81
2019-04-20T19:41:21.843Z,97626.58
2019-04-20T19:43:49.022Z,97626.69
2019-04-20T19:46:42.757Z,97624.05
2019-04-20T19:48:49.697Z,97626.23
2019-04-20T19:51:32.898Z,97629.39
2019-04-20T19:54:09.487Z,97633.42
2019-04-20T19:56:32.385Z,97630.55
2019-04-20T19:59:01.146Z,97631.92
2019-04-20T20:01:17.646Z,97630.27
2019-04-20T20:03:55.769Z,97629.09
2019-04-20T20:06:29.285Z,97629.37
2019-04-20T20:08:55.802Z,97625.50
2019-04-20T20:11:29.451Z,97630.90
2019-04-20T20:13:55.446Z,97632.11
2019-04-20T20:16:33.601Z,97637.29
2019-04-20T20:19:05.901Z,97640.13
2019-04-20T20:21:41.759Z,97640.81
2019-04-20T20:23:59.713Z,97640.14
2019-04-20T20:26:34.921Z,97640.98
2019-04-20T20:29:14.618Z,97650.02
2019-04-20T20:31:48.587Z,97642.80
2019-04-20T20:34:14.589Z,97646.31
2019-04-20T20:36:43.516Z,97649.30
2019-04-20T20:39:19.301Z,97648.14
2019-04-20T20:41:53.086Z,97648.01
2019-04-20T20:44:26.099Z,97647.55
2019-04-20T20:46:55.104Z,97649.47
2019-04-20T20:49:32.804Z,97651.33
2019-04-20T20:52:08.330Z,97650.56
2019-04-20T20:54:35.949Z,97646.50
2019-04-20T20:57:00.912Z,97641.31
2019-04-20T20:59:35.848Z,97646.46
2019-04-20T21:02:05.805Z,97645.58
2019-04-20T21:04:24.050Z,97645.02
2019-04-20T21:06:54.791Z,97644.50
2019-04-20T21:09:25.661Z,97647.91
2019-04-20T21:12:00.712Z,97651.97
2019-04-20T21:14:31.123Z,97651.22
2019-04-20T21:17:04.973Z,97651.33
2019-04-20T21:19:50.865Z,97657.45
2019-04-20T21:22:08.568Z,97650.97
2019-04-20T21:24:39.975Z,97649.09
2019-04-20T21:27:14.613Z,97646.75
2019-04-20T21:29:47.485Z,97657.81
2019-04-20T21:32:16.196Z,97651.69
2019-04-20T21:34:51.293Z,97650.58
2019-04-20T21:37:19.074Z,97656.91
2019-04-20T21:39:55.408Z,97650.08
2019-04-20T21:42:21.659Z,97651.84
2019-04-20T21:44:51.999Z,97649.61
2019-04-20T21:47:23.800Z,97652.16
2019-04-20T21:50:08.341Z,97646.14
2019-04-20T21:52:32.344Z,97646.47
2019-04-20T21:54:56.205Z,97645.61
2019-04-20T21:57:26.229Z,97652.52
2019-04-20T22:00:08.412Z,97650.68
2019-04-20T22:02:33.864Z,97650.02
2019-04-20T22:05:01.260Z,97644.23
2019-04-20T22:07:32.159Z,97643.02
2019-04-20T22:10:02.712Z,97648.50
2019-04-20T22:12:38.455Z,97648.30
2019-04-20T22:15:15.114Z,97649.56
2019-04-20T22:17:39.094Z,97647.63
2019-04-20T22:20:20.224Z,97652.99
2019-04-20T22:22:57.192Z,97651.41
2019-04-20T22:25:28.642Z,97648.80
2019-04-20T22:27:44.201Z,97644.41
2019-04-20T22:30:14.769Z,97638.98
2019-04-20T22:32:49.577Z,97649.98
2019-04-20T22:35:17.515Z,97640.58
2019-04-20T22:38:08.964Z,97640.98
2019-04-20T22:40:36.771Z,97635.38
2019-04-20T22:43:06.543Z,97639.63
2019-04-20T22:45:42.232Z,97636.19
2019-04-20T22:48:11.029Z,97636.67
2019-04-20T22:51:02.749Z,97633.80
2019-04-20T22:53:25.004Z,97634.12
2019-04-20T22:56:02.851Z,97634.11
2019-04-20T22:58:28.984Z,97627.06
2019-04-20T23:00:52.002Z,97621.21
2019-04-20T23:03:16.798Z,97617.02
2019-04-20T23:05:46.973Z,97605.67
2019-04-20T23:08:17.077Z,97613.99
2019-04-20T23:10:48.134Z,97612.73
2019-04-20T23:13:21.198Z,97605.92
2019-04-20T23:15:55.419Z,97599.71
2019-04-20T23:18:22.325Z,97604.09
2019-04-20T23:20:56.590Z,97598.44
2019-04-20T23:23:27.061Z,97594.50
2019-04-20T23:25:54.793Z,97595.97
2019-04-20T23:28:24.556Z,97593.02
2019-04-20T23:30:59.834Z,97587.98
2019-04-20T23:33:25.684Z,97589.39
2019-04-20T23:35:59.173Z,97586.13
2019-04-20T23:38:26.680Z,97583.81
2019-04-20T23:40:57.666Z,97589.20
2019-04-20T23:43:33.337Z,97580.17
2019-04-20T23:46:23.957Z,97580.25
2019-04-20T23:49:13.556Z,97583.81
2019-04-20T23:52:02.322Z,97572.75
2019-04-20T23:54:17.655Z,97569.87
2019-04-20T23:56:41.562Z,97569.59
2019-04-20T23:59:12.759Z,97568.47
